Iles-de-la-Madeleine, Canada
Current Conditions -  °F | °C
As of 7:00 AM on Tuesday 21 Oct 2014 (Local Time) from CYGR Reporting Station
Broken Clouds Broken Clouds  
Wind Chill:   Ceiling: 2300
Heat Index:   Visibility: 15mi
Dew Point:   Wind: 20mph
Humidity: 76%   Direction: 260°W
Pressure: 29.96"   Gusts: 26mph
Location:  47.42°N, 61.77°W
Report Text: CYGR 211000Z 26017G23KT 15SM BKN023 06/02 A2996 RMK SC7 SLP145
Loading
Personal Weather Stations






























Interactive Weather Map
Tropical Storm Tracking
New forecast layout! Learn more

10-Day Weather Forecast

Advertisements
Track Severe Weather on mobile